createdAt,value
2022-10-05T00:01:29.626Z,100550.78
2022-10-05T00:04:10.904Z,100557.78
2022-10-05T00:06:37.578Z,100559.41
2022-10-05T00:09:10.818Z,100564.94
2022-10-05T00:11:37.451Z,100558.78
2022-10-05T00:14:33.525Z,100566.94
2022-10-05T00:17:00.840Z,100565.44
2022-10-05T00:19:33.127Z,100565.44
2022-10-05T00:22:00.396Z,100576.28
2022-10-05T00:24:26.893Z,100579.97
2022-10-05T00:26:57.794Z,100572.97
2022-10-05T00:29:24.852Z,100573.00
2022-10-05T00:31:51.652Z,100581.31
2022-10-05T00:34:18.617Z,100580.47
2022-10-05T00:36:45.634Z,100579.63
2022-10-05T00:39:12.407Z,100586.63
2022-10-05T00:41:46.801Z,100582.13
2022-10-05T00:44:32.850Z,100596.94
2022-10-05T00:47:18.533Z,100602.91
2022-10-05T00:49:50.932Z,100592.94
2022-10-05T00:52:44.094Z,100602.22
2022-10-05T00:55:18.735Z,100610.88
2022-10-05T00:58:01.580Z,100613.19
2022-10-05T01:00:28.278Z,100617.69
2022-10-05T01:03:01.468Z,100620.16
2022-10-05T01:05:35.066Z,100622.00
2022-10-05T01:08:18.266Z,100626.34
2022-10-05T01:10:47.554Z,100633.13
2022-10-05T01:13:17.131Z,100635.81
2022-10-05T01:15:46.495Z,100634.00
2022-10-05T01:18:39.139Z,100639.16
2022-10-05T01:21:08.629Z,100642.62
2022-10-05T01:23:50.309Z,100648.62
2022-10-05T01:26:56.157Z,100646.13
2022-10-05T01:29:33.402Z,100657.78
2022-10-05T01:32:20.253Z,100666.78
2022-10-05T01:34:58.875Z,100665.28
2022-10-05T01:37:30.470Z,100669.97
2022-10-05T01:39:56.968Z,100675.47
2022-10-05T01:42:32.532Z,100678.13
2022-10-05T01:45:31.984Z,100692.44
2022-10-05T01:48:07.666Z,100694.75
2022-10-05T01:50:48.213Z,100697.25
2022-10-05T01:53:26.644Z,100699.28
2022-10-05T01:56:06.002Z,100713.59
2022-10-05T01:58:48.391Z,100712.59
2022-10-05T02:01:25.374Z,100718.91
2022-10-05T02:04:11.034Z,100721.41
2022-10-05T02:06:41.347Z,100728.41
2022-10-05T02:09:28.523Z,100736.41
2022-10-05T02:12:04.734Z,100726.72
2022-10-05T02:14:45.747Z,100727.59
2022-10-05T02:17:17.263Z,100733.91
2022-10-05T02:19:49.906Z,100736.56
2022-10-05T02:22:22.043Z,100743.06
2022-10-05T02:24:51.955Z,100741.41
2022-10-05T02:27:23.130Z,100747.72
2022-10-05T02:29:50.883Z,100744.41
2022-10-05T02:32:21.215Z,100752.41
2022-10-05T02:34:48.233Z,100749.75
2022-10-05T02:37:34.319Z,100748.06
2022-10-05T02:40:20.223Z,100756.41
2022-10-05T02:42:55.304Z,100753.91
2022-10-05T02:45:31.840Z,100762.06
2022-10-05T02:48:15.098Z,100759.91
2022-10-05T02:50:45.193Z,100754.59
2022-10-05T02:53:47.231Z,100750.44
2022-10-05T02:56:20.470Z,100750.75
2022-10-05T02:58:58.799Z,100764.25
2022-10-05T03:01:31.702Z,100763.44
2022-10-05T03:04:17.051Z,100766.25
2022-10-05T03:06:58.744Z,100763.75
2022-10-05T03:09:28.725Z,100761.09
2022-10-05T03:12:14.712Z,100772.75
2022-10-05T03:14:59.500Z,100766.59
2022-10-05T03:17:30.787Z,100776.56
2022-10-05T03:20:16.075Z,100781.88
2022-10-05T03:22:53.237Z,100789.87
2022-10-05T03:25:36.915Z,100798.03
2022-10-05T03:28:06.656Z,100803.03
2022-10-05T03:30:39.769Z,100802.03
2022-10-05T03:33:14.792Z,100793.22
2022-10-05T03:35:49.928Z,100786.88
2022-10-05T03:38:17.393Z,100800.19
2022-10-05T03:40:50.541Z,100806.22
2022-10-05T03:43:34.976Z,100806.22
2022-10-05T03:46:08.776Z,100808.69
2022-10-05T03:48:40.226Z,100812.19
2022-10-05T03:51:16.202Z,100805.00
2022-10-05T03:53:47.814Z,100808.53
2022-10-05T03:56:16.400Z,100816.53
2022-10-05T03:58:53.495Z,100816.53
2022-10-05T04:01:23.544Z,100812.00
2022-10-05T04:03:57.494Z,100801.03
2022-10-05T04:06:26.435Z,100815.34
2022-10-05T04:09:05.549Z,100820.66
2022-10-05T04:11:35.493Z,100822.50
2022-10-05T04:14:11.556Z,100820.81
2022-10-05T04:16:46.241Z,100822.66
2022-10-05T04:19:34.245Z,100818.34
2022-10-05T04:22:07.744Z,100826.66
2022-10-05T04:24:43.224Z,100829.66
2022-10-05T04:27:16.542Z,100833.34
2022-10-05T04:29:58.404Z,100830.84
2022-10-05T04:32:45.220Z,100836.16
2022-10-05T04:35:15.636Z,100838.13
2022-10-05T04:38:01.132Z,100847.16
2022-10-05T04:40:28.594Z,100843.81
2022-10-05T04:43:12.619Z,100856.78
2022-10-05T04:45:48.906Z,100845.16
2022-10-05T04:48:18.182Z,100856.63
2022-10-05T04:50:57.401Z,100860.63
2022-10-05T04:53:23.988Z,100872.09
2022-10-05T04:55:56.494Z,100877.25
2022-10-05T04:58:42.701Z,100875.28
2022-10-05T05:01:10.479Z,100883.25
2022-10-05T05:03:45.628Z,100883.91
2022-10-05T05:06:19.550Z,100897.25
2022-10-05T05:09:14.299Z,100900.72
2022-10-05T05:12:01.146Z,100908.72
2022-10-05T05:14:46.451Z,100916.03
2022-10-05T05:17:32.480Z,100914.72
2022-10-05T05:20:19.701Z,100905.56
2022-10-05T05:23:05.517Z,100918.56
2022-10-05T05:25:48.911Z,100910.72
2022-10-05T05:28:30.179Z,100917.56
2022-10-05T05:31:05.562Z,100917.25
2022-10-05T05:33:40.814Z,100920.56
2022-10-05T05:36:22.879Z,100928.06
2022-10-05T05:38:53.534Z,100930.56
2022-10-05T05:41:39.453Z,100935.53
2022-10-05T05:44:22.119Z,100933.56
2022-10-05T05:47:24.613Z,100935.72
2022-10-05T05:50:07.315Z,100944.03
2022-10-05T05:52:47.024Z,100959.37
2022-10-05T05:55:13.929Z,100953.69
2022-10-05T05:57:48.063Z,100948.19
2022-10-05T06:00:20.827Z,100948.03
2022-10-05T06:02:54.484Z,100949.37
2022-10-05T06:05:25.122Z,100950.19
2022-10-05T06:07:53.708Z,100958.87
2022-10-05T06:10:26.501Z,100953.19
2022-10-05T06:12:59.647Z,100964.00
2022-10-05T06:15:37.776Z,100964.19
2022-10-05T06:18:10.767Z,100977.66
2022-10-05T06:20:42.635Z,100988.47
2022-10-05T06:23:13.273Z,100977.47
2022-10-05T06:25:58.756Z,100988.50
2022-10-05T06:28:27.358Z,100983.16
2022-10-05T06:30:54.266Z,100990.16
2022-10-05T06:33:24.023Z,100993.47
2022-10-05T06:36:08.310Z,100992.97
2022-10-05T06:38:35.085Z,101005.16
2022-10-05T06:41:08.087Z,101006.78
2022-10-05T06:43:35.426Z,101009.28
2022-10-05T06:46:07.184Z,101004.81
2022-10-05T06:48:34.388Z,101015.97
2022-10-05T06:51:07.359Z,101012.12
2022-10-05T06:53:34.585Z,101010.78
2022-10-05T06:56:21.681Z,101013.81
2022-10-05T06:58:48.913Z,101014.28
2022-10-05T07:01:23.878Z,101021.78
2022-10-05T07:04:08.936Z,101004.41
2022-10-05T07:06:54.370Z,101017.75
2022-10-05T07:09:55.633Z,101011.22
2022-10-05T07:12:40.584Z,101033.37
2022-10-05T07:15:14.877Z,101042.69
2022-10-05T07:18:10.117Z,101030.84
2022-10-05T07:20:58.458Z,101027.63
2022-10-05T07:23:27.920Z,101031.31
2022-10-05T07:26:14.959Z,101034.16
2022-10-05T07:28:48.092Z,101035.00
2022-10-05T07:31:39.909Z,101040.81
2022-10-05T07:34:06.654Z,101047.31
2022-10-05T07:36:58.961Z,101052.47
2022-10-05T07:40:00.126Z,101052.81
2022-10-05T07:42:51.854Z,101072.69
2022-10-05T07:45:22.457Z,101065.44
2022-10-05T07:48:01.957Z,101061.25
2022-10-05T07:50:38.775Z,101058.41
2022-10-05T07:53:11.021Z,101061.53
2022-10-05T07:55:41.986Z,101063.22
2022-10-05T07:58:18.774Z,101063.22
2022-10-05T08:00:48.618Z,101066.88
2022-10-05T08:03:23.475Z,101056.00
2022-10-05T08:05:50.538Z,101049.81
2022-10-05T08:08:25.022Z,101057.59
2022-10-05T08:10:56.974Z,101052.53
2022-10-05T08:13:28.461Z,101056.88
2022-10-05T08:15:58.006Z,101058.91
2022-10-05T08:18:37.581Z,101051.44
2022-10-05T08:21:06.330Z,101058.94
2022-10-05T08:23:39.275Z,101058.47
2022-10-05T08:26:05.847Z,101068.66
2022-10-05T08:28:32.405Z,101059.91
2022-10-05T08:31:08.816Z,101063.56
2022-10-05T08:33:46.553Z,101068.19
2022-10-05T08:36:14.718Z,101075.31
2022-10-05T08:38:42.084Z,101070.28
2022-10-05T08:41:23.696Z,101083.31
2022-10-05T08:43:50.667Z,101083.12
2022-10-05T08:46:37.646Z,101088.47
2022-10-05T08:49:34.249Z,101096.31
2022-10-05T08:52:20.898Z,101087.59
2022-10-05T08:55:06.663Z,101081.97
2022-10-05T08:57:51.539Z,101090.63
2022-10-05T09:00:25.198Z,101093.22
2022-10-05T09:02:51.767Z,101086.69
2022-10-05T09:05:51.150Z,101099.06
2022-10-05T09:08:30.988Z,101102.09
2022-10-05T09:11:19.691Z,101104.47
2022-10-05T09:13:49.521Z,101105.69
2022-10-05T09:16:28.850Z,101115.53
2022-10-05T09:19:14.629Z,101106.31
2022-10-05T09:21:57.395Z,101102.47
2022-10-05T09:24:23.966Z,101103.38
2022-10-05T09:27:00.069Z,101099.16
2022-10-05T09:29:45.399Z,101098.25
2022-10-05T09:32:31.023Z,101101.06
2022-10-05T09:35:26.674Z,101116.94
2022-10-05T09:37:59.907Z,101121.63
2022-10-05T09:40:42.037Z,101112.94
2022-10-05T09:43:15.377Z,101103.06
2022-10-05T09:46:01.352Z,101107.59
2022-10-05T09:48:28.242Z,101105.56
2022-10-05T09:51:07.242Z,101103.56
2022-10-05T09:53:53.070Z,101114.25
2022-10-05T09:56:22.820Z,101119.78
2022-10-05T09:58:55.782Z,101110.72
2022-10-05T10:01:35.231Z,101118.87
2022-10-05T10:04:12.292Z,101109.31
2022-10-05T10:06:59.518Z,101107.09
2022-10-05T10:09:37.902Z,101098.03
2022-10-05T10:12:11.495Z,101104.84
2022-10-05T10:14:49.543Z,101111.69
2022-10-05T10:17:30.639Z,101102.28
2022-10-05T10:20:15.898Z,101108.66
2022-10-05T10:22:51.958Z,101113.47
2022-10-05T10:25:34.795Z,101107.19
2022-10-05T10:28:20.130Z,101115.78
2022-10-05T10:31:11.956Z,101119.66
2022-10-05T10:33:41.682Z,101121.34
2022-10-05T10:36:08.490Z,101125.31
2022-10-05T10:38:53.211Z,101120.59
2022-10-05T10:41:34.100Z,101123.91
2022-10-05T10:44:16.106Z,101121.50
2022-10-05T10:47:21.932Z,101124.47
2022-10-05T10:50:07.453Z,101122.88
2022-10-05T10:52:46.422Z,101117.16
2022-10-05T10:55:31.938Z,101126.69
2022-10-05T10:57:58.896Z,101122.97
2022-10-05T11:00:44.582Z,101125.37
2022-10-05T11:03:20.378Z,101131.47
2022-10-05T11:06:07.608Z,101123.91
2022-10-05T11:08:34.558Z,101120.22
2022-10-05T11:11:19.982Z,101111.59
2022-10-05T11:13:47.644Z,101109.56
2022-10-05T11:16:19.629Z,101102.38
2022-10-05T11:19:06.941Z,101107.34
2022-10-05T11:21:52.344Z,101110.66
2022-10-05T11:24:38.727Z,101117.88
2022-10-05T11:27:14.932Z,101110.41
2022-10-05T11:29:56.008Z,101107.25
2022-10-05T11:32:25.660Z,101104.37
2022-10-05T11:34:55.791Z,101101.69
2022-10-05T11:37:40.941Z,101113.84
2022-10-05T11:40:26.958Z,101108.66
2022-10-05T11:42:59.620Z,101116.72
2022-10-05T11:45:40.039Z,101115.88
2022-10-05T11:48:09.797Z,101107.97
2022-10-05T11:50:48.787Z,101113.53
2022-10-05T11:53:22.251Z,101122.25
2022-10-05T11:56:01.047Z,101120.22
2022-10-05T11:58:29.780Z,101120.84
2022-10-05T12:01:00.775Z,101134.06
2022-10-05T12:03:36.318Z,101139.63
2022-10-05T12:06:15.358Z,101130.94
2022-10-05T12:08:56.333Z,101137.31
2022-10-05T12:11:36.006Z,101135.84
2022-10-05T12:14:12.083Z,101143.03
2022-10-05T12:16:46.821Z,101140.72
2022-10-05T12:19:19.630Z,101151.44
2022-10-05T12:21:53.735Z,101154.78
2022-10-05T12:24:28.117Z,101163.47
2022-10-05T12:27:01.439Z,101158.09
2022-10-05T12:29:44.173Z,101159.63
2022-10-05T12:32:16.219Z,101160.25
2022-10-05T12:35:01.427Z,101162.75
2022-10-05T12:37:28.953Z,101168.94
2022-10-05T12:40:18.696Z,101174.47
2022-10-05T12:43:03.400Z,101180.22
2022-10-05T12:45:49.321Z,101183.25
2022-10-05T12:48:23.998Z,101181.94
2022-10-05T12:50:55.069Z,101180.66
2022-10-05T12:53:34.525Z,101181.41
2022-10-05T12:56:04.255Z,101174.75
2022-10-05T12:58:42.796Z,101178.44
2022-10-05T13:01:18.766Z,101183.16
2022-10-05T13:03:53.194Z,101181.31
2022-10-05T13:06:19.984Z,101182.53
2022-10-05T13:08:56.007Z,101187.72
2022-10-05T13:11:28.615Z,101180.47
2022-10-05T13:14:05.240Z,101181.12
2022-10-05T13:16:38.552Z,101177.25
2022-10-05T13:19:11.520Z,101183.44
2022-10-05T13:21:38.687Z,101180.56
2022-10-05T13:24:20.795Z,101183.25
2022-10-05T13:26:58.233Z,101186.78
2022-10-05T13:29:34.680Z,101175.00
2022-10-05T13:32:07.481Z,101170.50
2022-10-05T13:34:54.417Z,101168.00
2022-10-05T13:38:01.661Z,101165.34
2022-10-05T13:40:33.929Z,101176.88
2022-10-05T13:43:14.979Z,101161.97
2022-10-05T13:45:55.674Z,101171.06
2022-10-05T13:48:42.995Z,101180.13
2022-10-05T13:51:18.162Z,101189.16
2022-10-05T13:53:49.299Z,101189.16
2022-10-05T13:56:24.314Z,101199.87
2022-10-05T13:58:57.925Z,101200.72
2022-10-05T14:01:28.242Z,101185.84
2022-10-05T14:04:13.921Z,101189.53
2022-10-05T14:06:40.503Z,101198.94
2022-10-05T14:09:12.634Z,101190.28
2022-10-05T14:11:47.264Z,101190.63
2022-10-05T14:14:16.350Z,101179.91
2022-10-05T14:16:48.233Z,101182.59
2022-10-05T14:19:22.508Z,101178.06
2022-10-05T14:21:53.708Z,101180.56
2022-10-05T14:24:43.966Z,101180.56
2022-10-05T14:27:20.207Z,101178.53
2022-10-05T14:29:52.882Z,101182.87
2022-10-05T14:32:22.612Z,101180.03
2022-10-05T14:35:08.886Z,101186.22
2022-10-05T14:37:49.386Z,101187.41
2022-10-05T14:40:25.643Z,101182.03
2022-10-05T14:42:52.323Z,101184.28
2022-10-05T14:45:29.864Z,101175.56
2022-10-05T14:48:00.269Z,101183.97
2022-10-05T14:50:30.700Z,101178.97
2022-10-05T14:53:04.287Z,101181.03
2022-10-05T14:55:41.574Z,101181.41
2022-10-05T14:58:26.560Z,101183.78
2022-10-05T15:01:02.354Z,101189.50
2022-10-05T15:03:29.305Z,101191.53
2022-10-05T15:05:59.108Z,101194.56
2022-10-05T15:08:31.675Z,101193.94
2022-10-05T15:11:07.796Z,101202.16
2022-10-05T15:13:37.537Z,101202.53
2022-10-05T15:16:13.729Z,101202.72
2022-10-05T15:18:48.805Z,101203.06
2022-10-05T15:21:15.670Z,101193.53
2022-10-05T15:23:47.257Z,101197.41
2022-10-05T15:26:25.738Z,101188.72
2022-10-05T15:28:54.378Z,101194.44
2022-10-05T15:31:21.020Z,101201.81
2022-10-05T15:33:59.068Z,101203.84
2022-10-05T15:36:35.530Z,101210.22
2022-10-05T15:39:20.887Z,101202.34
2022-10-05T15:42:05.289Z,101202.53
2022-10-05T15:44:34.049Z,101200.03
2022-10-05T15:47:09.167Z,101207.44
2022-10-05T15:49:41.908Z,101204.25
2022-10-05T15:52:17.651Z,101208.97
2022-10-05T15:55:08.067Z,101205.66
2022-10-05T15:57:59.629Z,101198.69
2022-10-05T16:00:27.311Z,101209.87
2022-10-05T16:03:13.986Z,101212.72
2022-10-05T16:06:04.210Z,101211.03
2022-10-05T16:08:51.501Z,101211.41
2022-10-05T16:11:36.732Z,101216.94
2022-10-05T16:14:18.912Z,101213.44
2022-10-05T16:16:51.396Z,101209.25
2022-10-05T16:19:21.390Z,101210.28
2022-10-05T16:22:00.604Z,101212.28
2022-10-05T16:24:47.349Z,101206.13
2022-10-05T16:27:20.777Z,101220.50
2022-10-05T16:29:59.896Z,101206.47
2022-10-05T16:32:33.743Z,101210.16
2022-10-05T16:35:21.540Z,101205.81
2022-10-05T16:37:58.922Z,101202.47
2022-10-05T16:40:45.220Z,101215.22
2022-10-05T16:43:35.266Z,101203.84
2022-10-05T16:46:02.195Z,101211.03
2022-10-05T16:48:30.923Z,101210.22
2022-10-05T16:50:57.403Z,101203.37
2022-10-05T16:53:24.247Z,101205.22
2022-10-05T16:55:56.017Z,101199.03
2022-10-05T16:58:27.395Z,101207.22
2022-10-05T17:01:09.962Z,101204.72
2022-10-05T17:03:38.981Z,101209.25
2022-10-05T17:06:24.934Z,101207.53
2022-10-05T17:09:10.112Z,101203.19
2022-10-05T17:11:55.599Z,101204.88
2022-10-05T17:14:35.139Z,101214.91
2022-10-05T17:17:17.242Z,101219.41
2022-10-05T17:19:46.658Z,101221.28
2022-10-05T17:22:37.604Z,101217.78
2022-10-05T17:25:14.410Z,101226.63
2022-10-05T17:27:42.641Z,101217.59
2022-10-05T17:30:27.622Z,101224.59
2022-10-05T17:33:14.159Z,101221.91
2022-10-05T17:35:49.109Z,101221.81
2022-10-05T17:38:18.119Z,101209.41
2022-10-05T17:40:59.795Z,101218.41
2022-10-05T17:43:27.711Z,101219.41
2022-10-05T17:45:54.351Z,101220.44
2022-10-05T17:48:37.897Z,101219.59
2022-10-05T17:51:33.998Z,101217.94
2022-10-05T17:54:35.849Z,101214.41
2022-10-05T17:57:02.941Z,101212.59
2022-10-05T17:59:59.025Z,101207.25
2022-10-05T18:02:36.339Z,101196.56
2022-10-05T18:05:06.818Z,101209.06
2022-10-05T18:07:34.821Z,101210.91
2022-10-05T18:10:15.533Z,101209.06
2022-10-05T18:12:45.401Z,101210.75
2022-10-05T18:15:21.417Z,101205.22
2022-10-05T18:17:59.678Z,101205.22
2022-10-05T18:20:30.065Z,101212.25
2022-10-05T18:23:02.768Z,101210.22
2022-10-05T18:25:35.461Z,101218.25
2022-10-05T18:28:03.959Z,101213.59
2022-10-05T18:30:34.937Z,101218.59
2022-10-05T18:33:14.558Z,101216.56
2022-10-05T18:35:44.196Z,101212.91
2022-10-05T18:38:14.091Z,101215.56
2022-10-05T18:40:46.571Z,101213.91
2022-10-05T18:43:19.960Z,101209.53
2022-10-05T18:45:49.446Z,101214.06
2022-10-05T18:48:16.249Z,101213.25
2022-10-05T18:50:46.506Z,101216.75
2022-10-05T18:53:13.041Z,101212.22
2022-10-05T18:55:45.483Z,101201.50
2022-10-05T18:58:17.192Z,101199.69
2022-10-05T19:00:47.056Z,101203.19
2022-10-05T19:03:23.006Z,101202.38
2022-10-05T19:05:58.338Z,101197.03
2022-10-05T19:08:39.469Z,101199.69
2022-10-05T19:11:27.771Z,101202.38
2022-10-05T19:13:59.867Z,101209.53
2022-10-05T19:16:35.667Z,101217.56
2022-10-05T19:19:04.308Z,101212.22
2022-10-05T19:21:46.672Z,101202.38
2022-10-05T19:24:19.163Z,101213.06
2022-10-05T19:26:55.143Z,101214.72
2022-10-05T19:29:40.534Z,101220.25
2022-10-05T19:32:18.614Z,101212.03
2022-10-05T19:34:46.139Z,101223.41
2022-10-05T19:37:22.094Z,101225.91
2022-10-05T19:39:48.802Z,101228.59
2022-10-05T19:42:18.578Z,101230.25
2022-10-05T19:44:52.304Z,101221.09
2022-10-05T19:47:51.414Z,101230.06
2022-10-05T19:50:18.340Z,101235.59
2022-10-05T19:52:49.803Z,101237.44
2022-10-05T19:55:26.197Z,101235.59
2022-10-05T19:58:00.496Z,101241.97
2022-10-05T20:00:31.329Z,101239.28
2022-10-05T20:03:14.384Z,101226.75
2022-10-05T20:05:41.079Z,101224.88
2022-10-05T20:08:08.252Z,101220.37
2022-10-05T20:10:34.910Z,101219.53
2022-10-05T20:13:02.637Z,101203.47
2022-10-05T20:15:49.019Z,101196.47
2022-10-05T20:18:54.853Z,101188.28
2022-10-05T20:21:39.986Z,101177.06
2022-10-05T20:24:27.321Z,101167.22
2022-10-05T20:27:06.435Z,101174.41
2022-10-05T20:29:35.494Z,101166.38
2022-10-05T20:32:08.205Z,101172.75
2022-10-05T20:34:35.614Z,101169.22
2022-10-05T20:37:02.937Z,101171.09
2022-10-05T20:39:30.495Z,101169.22
2022-10-05T20:41:57.510Z,101179.09
2022-10-05T20:44:24.443Z,101181.78
2022-10-05T20:46:51.134Z,101184.47
2022-10-05T20:49:17.739Z,101186.31
2022-10-05T20:51:44.649Z,101196.84
2022-10-05T20:54:11.168Z,101195.97
2022-10-05T20:56:37.718Z,101189.00
2022-10-05T20:59:04.762Z,101187.13
2022-10-05T21:01:32.014Z,101189.81
2022-10-05T21:03:58.763Z,101201.34
2022-10-05T21:06:28.660Z,101194.34
2022-10-05T21:08:55.299Z,101205.03
2022-10-05T21:11:21.859Z,101206.03
2022-10-05T21:13:50.767Z,101198.84
2022-10-05T21:16:19.095Z,101204.19
2022-10-05T21:18:47.108Z,101198.84
2022-10-05T21:21:17.019Z,101194.34
2022-10-05T21:23:44.456Z,101190.81
2022-10-05T21:26:12.717Z,101179.47
2022-10-05T21:28:41.607Z,101184.81
2022-10-05T21:31:08.573Z,101190.16
2022-10-05T21:33:35.291Z,101170.44
2022-10-05T21:36:02.223Z,101186.84
2022-10-05T21:38:29.419Z,101186.84
2022-10-05T21:40:56.389Z,101191.34
2022-10-05T21:43:23.259Z,101189.69
2022-10-05T21:45:49.852Z,101190.53
2022-10-05T21:48:16.610Z,101184.34
2022-10-05T21:50:44.252Z,101196.03
2022-10-05T21:53:13.053Z,101198.69
2022-10-05T21:55:41.418Z,101204.03
2022-10-05T21:58:08.465Z,101200.69
2022-10-05T22:00:35.067Z,101193.53
2022-10-05T22:03:01.916Z,101193.69
2022-10-05T22:05:28.646Z,101195.69
2022-10-05T22:07:55.170Z,101176.16
2022-10-05T22:10:21.959Z,101165.63
2022-10-05T22:12:48.619Z,101171.97
2022-10-05T22:15:15.449Z,101163.13
2022-10-05T22:17:42.765Z,101166.81
2022-10-05T22:20:13.057Z,101164.31
2022-10-05T22:22:39.611Z,101159.81
2022-10-05T22:25:06.535Z,101163.47
2022-10-05T22:27:33.631Z,101167.16
2022-10-05T22:30:00.178Z,101164.47
2022-10-05T22:32:26.958Z,101164.66
2022-10-05T22:34:53.713Z,101166.34
2022-10-05T22:37:20.198Z,101160.16
2022-10-05T22:39:47.102Z,101149.47
2022-10-05T22:42:13.728Z,101160.97
2022-10-05T22:44:40.354Z,101152.97
2022-10-05T22:47:07.389Z,101150.47
2022-10-05T22:49:33.944Z,101152.13
2022-10-05T22:52:00.499Z,101153.13
2022-10-05T22:54:30.025Z,101152.31
2022-10-05T22:56:57.699Z,101146.97
2022-10-05T22:59:24.267Z,101149.81
2022-10-05T23:01:51.157Z,101140.12
2022-10-05T23:04:17.735Z,101141.13
2022-10-05T23:06:44.224Z,101151.81
2022-10-05T23:09:11.107Z,101155.53
2022-10-05T23:11:37.856Z,101148.50
2022-10-05T23:14:04.418Z,101147.84
2022-10-05T23:16:31.374Z,101151.53
2022-10-05T23:18:59.111Z,101145.50
2022-10-05T23:21:27.630Z,101151.87
2022-10-05T23:23:54.719Z,101149.56
2022-10-05T23:26:22.943Z,101155.06
2022-10-05T23:28:50.158Z,101163.28
2022-10-05T23:31:19.065Z,101166.13
2022-10-05T23:33:45.967Z,101160.97
2022-10-05T23:36:14.750Z,101158.47
2022-10-05T23:38:42.603Z,101158.81
2022-10-05T23:41:09.627Z,101152.78
2022-10-05T23:43:36.801Z,101157.47
2022-10-05T23:46:04.738Z,101158.66
2022-10-05T23:48:31.955Z,101151.63
2022-10-05T23:50:58.969Z,101150.81
2022-10-05T23:53:26.255Z,101150.97
2022-10-05T23:55:53.134Z,101145.63
2022-10-05T23:58:20.147Z,101140.47
